FIN823 ESSA-ENZV
Flight info
| Callsign | FIN823 |
|---|---|
| Flight time | 1h 5m |
| Altitude | 34000 |
| Route | ARS N623 BEDLA P609 VATEX DCT ULMUG DCT IDIPI |
| Aircraft | A320/M-SDE3FGHIRWY/LB1 |
Departure
| Time | 2026-03-29 09:41 |
|---|---|
| Airport | Stockholm-Arlanda Airport (ESSA) |
Arrival
| Time | 2026-03-29 10:46 |
|---|---|
| Airport | Stavanger Airport, Sola (ENZV) |
| Time | Latitude | Longitude | Altitude | Speed | Heading |
|---|---|---|---|---|---|
| 2026-03-29 09:18 | 59.64401 | 17.92746 | 111 ft | 0 kts | 46° |
| 2026-03-29 09:32 | 59.64396 | 17.92735 | 112 ft | 2 kts | 46° |
| 2026-03-29 09:32 | 59.64382 | 17.92706 | 111 ft | 3 kts | 46° |
| 2026-03-29 09:33 | 59.64354 | 17.92649 | 111 ft | 3 kts | 46° |
| 2026-03-29 09:33 | 59.64340 | 17.92621 | 109 ft | 2 kts | 46° |
| 2026-03-29 09:33 | 59.64336 | 17.92613 | 110 ft | 0 kts | 46° |
| 2026-03-29 09:35 | 59.64336 | 17.92614 | 109 ft | 1 kts | 46° |
| 2026-03-29 09:35 | 59.64349 | 17.92610 | 111 ft | 3 kts | 326° |
| 2026-03-29 09:35 | 59.64350 | 17.92572 | 111 ft | 5 kts | 257° |
| 2026-03-29 09:36 | 59.64319 | 17.92483 | 113 ft | 10 kts | 237° |
| 2026-03-29 09:36 | 59.64329 | 17.92337 | 114 ft | 12 kts | 299° |
| 2026-03-29 09:36 | 59.64373 | 17.92180 | 113 ft | 14 kts | 299° |
| 2026-03-29 09:36 | 59.64424 | 17.91990 | 112 ft | 17 kts | 302° |
| 2026-03-29 09:37 | 59.64537 | 17.91975 | 110 ft | 17 kts | 13° |
| 2026-03-29 09:37 | 59.64615 | 17.92006 | 109 ft | 17 kts | 11° |
| 2026-03-29 09:37 | 59.64727 | 17.92045 | 108 ft | 16 kts | 9° |
| 2026-03-29 09:37 | 59.64835 | 17.92081 | 106 ft | 15 kts | 10° |
| 2026-03-29 09:38 | 59.64935 | 17.92122 | 106 ft | 14 kts | 13° |
| 2026-03-29 09:38 | 59.65049 | 17.92160 | 107 ft | 23 kts | 9° |
| 2026-03-29 09:38 | 59.65239 | 17.92228 | 107 ft | 29 kts | 10° |
| 2026-03-29 09:38 | 59.65449 | 17.92303 | 104 ft | 31 kts | 11° |
| 2026-03-29 09:39 | 59.65662 | 17.92383 | 104 ft | 32 kts | 11° |
| 2026-03-29 09:39 | 59.65852 | 17.92453 | 107 ft | 16 kts | 9° |
| 2026-03-29 09:39 | 59.65913 | 17.92344 | 110 ft | 14 kts | 279° |
| 2026-03-29 09:39 | 59.65929 | 17.92166 | 114 ft | 11 kts | 280° |
| 2026-03-29 09:40 | 59.65897 | 17.92107 | 115 ft | 2 kts | 189° |
| 2026-03-29 09:40 | 59.65855 | 17.92093 | 114 ft | 19 kts | 189° |
| 2026-03-29 09:40 | 59.65479 | 17.91950 | 106 ft | 89 kts | 191° |
| 2026-03-29 09:40 | 59.64681 | 17.91665 | 111 ft | 142 kts | 190° |
| 2026-03-29 09:41 | 59.63656 | 17.91289 | 632 ft | 145 kts | 194° |
| 2026-03-29 09:41 | 59.62654 | 17.90884 | 1343 ft | 146 kts | 195° |
| 2026-03-29 09:41 | 59.61652 | 17.90393 | 1936 ft | 150 kts | 210° |
| 2026-03-29 09:41 | 59.60836 | 17.88503 | 2265 ft | 173 kts | 239° |
| 2026-03-29 09:42 | 59.60249 | 17.86590 | 2558 ft | 193 kts | 238° |
| 2026-03-29 09:42 | 59.59513 | 17.84243 | 3094 ft | 205 kts | 238° |
| 2026-03-29 09:42 | 59.58751 | 17.81829 | 3927 ft | 209 kts | 240° |
| 2026-03-29 09:42 | 59.58015 | 17.79181 | 4474 ft | 229 kts | 242° |
| 2026-03-29 09:43 | 59.57266 | 17.76302 | 5143 ft | 240 kts | 243° |
| 2026-03-29 09:43 | 59.56738 | 17.73164 | 5972 ft | 246 kts | 263° |
| 2026-03-29 09:43 | 59.56774 | 17.69749 | 6813 ft | 251 kts | 271° |
| 2026-03-29 09:43 | 59.56861 | 17.66278 | 7674 ft | 255 kts | 271° |
| 2026-03-29 09:44 | 59.56942 | 17.62772 | 8522 ft | 258 kts | 271° |
| 2026-03-29 09:44 | 59.57021 | 17.59206 | 9382 ft | 262 kts | 271° |
| 2026-03-29 09:44 | 59.57099 | 17.55544 | 10204 ft | 266 kts | 270° |
| 2026-03-29 09:44 | 59.57173 | 17.51809 | 10521 ft | 288 kts | 270° |
| 2026-03-29 09:45 | 59.57252 | 17.47651 | 10743 ft | 311 kts | 270° |
| 2026-03-29 09:45 | 59.57336 | 17.43277 | 11209 ft | 323 kts | 270° |
| 2026-03-29 09:45 | 59.57422 | 17.38806 | 11917 ft | 328 kts | 270° |
| 2026-03-29 09:45 | 59.57507 | 17.34287 | 12648 ft | 332 kts | 270° |
| 2026-03-29 09:46 | 59.57592 | 17.29703 | 13378 ft | 336 kts | 270° |
| 2026-03-29 09:46 | 59.57677 | 17.25077 | 14060 ft | 340 kts | 270° |
| 2026-03-29 09:46 | 59.57762 | 17.20402 | 14707 ft | 342 kts | 269° |
| 2026-03-29 09:46 | 59.57846 | 17.15699 | 15419 ft | 344 kts | 269° |
| 2026-03-29 09:47 | 59.57930 | 17.10826 | 16035 ft | 348 kts | 269° |
| 2026-03-29 09:47 | 59.58011 | 17.06039 | 16680 ft | 351 kts | 269° |
| 2026-03-29 09:47 | 59.58092 | 17.01210 | 17343 ft | 353 kts | 268° |
| 2026-03-29 09:47 | 59.58172 | 16.96361 | 18020 ft | 355 kts | 268° |
| 2026-03-29 09:48 | 59.58251 | 16.91486 | 18635 ft | 357 kts | 267° |
| 2026-03-29 09:48 | 59.58325 | 16.86582 | 19228 ft | 358 kts | 266° |
| 2026-03-29 09:48 | 59.58397 | 16.81592 | 19823 ft | 360 kts | 266° |
| 2026-03-29 09:48 | 59.58464 | 16.76642 | 20406 ft | 362 kts | 265° |
| 2026-03-29 09:49 | 59.58531 | 16.71669 | 20978 ft | 364 kts | 265° |
| 2026-03-29 09:49 | 59.58608 | 16.66663 | 21536 ft | 367 kts | 266° |
| 2026-03-29 09:49 | 59.58962 | 16.61620 | 22070 ft | 375 kts | 273° |
| 2026-03-29 09:49 | 59.59478 | 16.56555 | 22592 ft | 378 kts | 273° |
| 2026-03-29 09:50 | 59.59995 | 16.51461 | 23094 ft | 380 kts | 272° |
| 2026-03-29 09:50 | 59.60515 | 16.46323 | 23566 ft | 384 kts | 275° |
| 2026-03-29 09:50 | 59.61039 | 16.41108 | 23886 ft | 389 kts | 275° |
| 2026-03-29 09:50 | 59.61563 | 16.35846 | 24239 ft | 392 kts | 275° |
| 2026-03-29 09:51 | 59.62088 | 16.30545 | 24589 ft | 395 kts | 275° |
| 2026-03-29 09:51 | 59.62582 | 16.25200 | 24935 ft | 395 kts | 271° |
| 2026-03-29 09:51 | 59.62717 | 16.19815 | 25271 ft | 391 kts | 262° |
| 2026-03-29 09:51 | 59.62473 | 16.14477 | 25591 ft | 391 kts | 259° |
| 2026-03-29 09:52 | 59.62177 | 16.09121 | 25929 ft | 393 kts | 259° |
| 2026-03-29 09:52 | 59.61876 | 16.03666 | 26257 ft | 396 kts | 259° |
| 2026-03-29 09:52 | 59.61576 | 15.98239 | 26573 ft | 399 kts | 259° |
| 2026-03-29 09:52 | 59.61273 | 15.92779 | 26885 ft | 401 kts | 259° |
| 2026-03-29 09:53 | 59.60969 | 15.87293 | 27191 ft | 404 kts | 259° |
| 2026-03-29 09:53 | 59.60659 | 15.81761 | 27517 ft | 406 kts | 261° |
| 2026-03-29 09:53 | 59.60345 | 15.76190 | 27680 ft | 412 kts | 261° |
| 2026-03-29 09:53 | 59.60024 | 15.70535 | 27918 ft | 416 kts | 261° |
| 2026-03-29 09:54 | 59.59699 | 15.64847 | 28193 ft | 418 kts | 261° |
| 2026-03-29 09:54 | 59.59369 | 15.59117 | 28463 ft | 421 kts | 261° |
| 2026-03-29 09:54 | 59.59035 | 15.53368 | 28735 ft | 423 kts | 261° |
| 2026-03-29 09:54 | 59.58692 | 15.47515 | 28996 ft | 425 kts | 261° |
| 2026-03-29 09:55 | 59.58349 | 15.41711 | 29242 ft | 427 kts | 261° |
| 2026-03-29 09:55 | 59.58118 | 15.37846 | 29402 ft | 428 kts | 261° |
| 2026-03-29 09:55 | 59.57765 | 15.32002 | 29638 ft | 430 kts | 261° |
| 2026-03-29 09:55 | 59.57408 | 15.26135 | 29910 ft | 431 kts | 261° |
| 2026-03-29 09:56 | 59.57049 | 15.20261 | 30196 ft | 431 kts | 262° |
| 2026-03-29 09:56 | 59.56691 | 15.14394 | 30463 ft | 431 kts | 262° |
| 2026-03-29 09:56 | 59.56330 | 15.08532 | 30701 ft | 432 kts | 263° |
| 2026-03-29 09:56 | 59.55965 | 15.02638 | 30919 ft | 433 kts | 263° |
| 2026-03-29 09:57 | 59.55599 | 14.96746 | 31161 ft | 433 kts | 263° |
| 2026-03-29 09:57 | 59.55230 | 14.90854 | 31429 ft | 433 kts | 263° |
| 2026-03-29 09:57 | 59.54860 | 14.84950 | 31701 ft | 433 kts | 263° |
| 2026-03-29 09:57 | 59.54487 | 14.79067 | 31972 ft | 433 kts | 263° |
| 2026-03-29 09:58 | 59.54106 | 14.73187 | 32240 ft | 433 kts | 262° |
| 2026-03-29 09:58 | 59.53720 | 14.67304 | 32514 ft | 433 kts | 262° |
| 2026-03-29 09:58 | 59.53330 | 14.61426 | 32785 ft | 432 kts | 262° |
| 2026-03-29 09:58 | 59.52936 | 14.55562 | 33056 ft | 432 kts | 262° |
| 2026-03-29 09:59 | 59.52535 | 14.49615 | 33331 ft | 432 kts | 262° |
| 2026-03-29 09:59 | 59.52148 | 14.43831 | 33602 ft | 432 kts | 262° |
| 2026-03-29 09:59 | 59.51752 | 14.37895 | 33884 ft | 432 kts | 263° |
| 2026-03-29 09:59 | 59.51360 | 14.32023 | 34015 ft | 433 kts | 262° |
| 2026-03-29 10:00 | 59.50562 | 14.20274 | 34055 ft | 433 kts | 262° |
| 2026-03-29 10:00 | 59.49740 | 14.08524 | 34052 ft | 433 kts | 262° |
| 2026-03-29 10:01 | 59.48917 | 13.96897 | 34044 ft | 433 kts | 262° |
| 2026-03-29 10:01 | 59.48074 | 13.85057 | 34022 ft | 433 kts | 262° |
| 2026-03-29 10:02 | 59.47228 | 13.73322 | 34022 ft | 433 kts | 262° |
| 2026-03-29 10:02 | 59.46375 | 13.61585 | 34015 ft | 433 kts | 262° |
| 2026-03-29 10:03 | 59.45509 | 13.49860 | 33988 ft | 433 kts | 262° |
| 2026-03-29 10:03 | 59.44625 | 13.38149 | 33995 ft | 434 kts | 262° |
| 2026-03-29 10:04 | 59.43721 | 13.26335 | 34000 ft | 434 kts | 262° |
| 2026-03-29 10:04 | 59.42814 | 13.14621 | 34003 ft | 434 kts | 262° |
| 2026-03-29 10:05 | 59.41900 | 13.02928 | 34016 ft | 434 kts | 262° |
| 2026-03-29 10:05 | 59.40969 | 12.91238 | 34031 ft | 432 kts | 262° |
| 2026-03-29 10:06 | 59.40025 | 12.79594 | 34033 ft | 431 kts | 262° |
| 2026-03-29 10:06 | 59.39069 | 12.67982 | 34032 ft | 431 kts | 262° |
| 2026-03-29 10:07 | 59.38118 | 12.56385 | 34028 ft | 430 kts | 262° |
| 2026-03-29 10:07 | 59.37143 | 12.44659 | 34017 ft | 430 kts | 262° |
| 2026-03-29 10:08 | 59.36173 | 12.33097 | 34015 ft | 430 kts | 262° |
| 2026-03-29 10:08 | 59.35190 | 12.21540 | 34018 ft | 430 kts | 262° |
| 2026-03-29 10:09 | 59.34192 | 12.10003 | 34017 ft | 430 kts | 262° |
| 2026-03-29 10:09 | 59.33182 | 11.98460 | 33984 ft | 429 kts | 262° |
| 2026-03-29 10:10 | 59.32178 | 11.86935 | 33996 ft | 429 kts | 262° |
| 2026-03-29 10:10 | 59.31285 | 11.75404 | 34004 ft | 428 kts | 265° |
| 2026-03-29 10:11 | 59.30747 | 11.63806 | 34015 ft | 427 kts | 267° |
| 2026-03-29 10:12 | 59.30002 | 11.46369 | 34025 ft | 426 kts | 266° |
| 2026-03-29 10:12 | 59.29401 | 11.34835 | 34025 ft | 426 kts | 265° |
| 2026-03-29 10:13 | 59.28768 | 11.23325 | 34078 ft | 425 kts | 265° |
| 2026-03-29 10:13 | 59.28140 | 11.11827 | 34096 ft | 425 kts | 265° |
| 2026-03-29 10:14 | 59.27512 | 11.00332 | 34118 ft | 425 kts | 265° |
| 2026-03-29 10:14 | 59.26880 | 10.88850 | 34109 ft | 425 kts | 266° |
| 2026-03-29 10:15 | 59.26240 | 10.77380 | 34111 ft | 425 kts | 266° |
| 2026-03-29 10:15 | 59.25580 | 10.65910 | 34110 ft | 425 kts | 265° |
| 2026-03-29 10:16 | 59.24898 | 10.54366 | 34091 ft | 425 kts | 265° |
| 2026-03-29 10:16 | 59.24215 | 10.42906 | 34070 ft | 425 kts | 265° |
| 2026-03-29 10:17 | 59.23528 | 10.31450 | 34031 ft | 425 kts | 265° |
| 2026-03-29 10:17 | 59.22843 | 10.20001 | 33997 ft | 425 kts | 265° |
| 2026-03-29 10:18 | 59.22131 | 10.08552 | 33999 ft | 425 kts | 265° |
| 2026-03-29 10:18 | 59.21401 | 9.97107 | 33967 ft | 425 kts | 265° |
| 2026-03-29 10:19 | 59.20671 | 9.85671 | 33976 ft | 425 kts | 265° |
| 2026-03-29 10:19 | 59.19940 | 9.74234 | 33977 ft | 425 kts | 265° |
| 2026-03-29 10:20 | 59.19184 | 9.62723 | 33992 ft | 425 kts | 265° |
| 2026-03-29 10:20 | 59.18402 | 9.51326 | 33992 ft | 423 kts | 265° |
| 2026-03-29 10:21 | 59.17545 | 9.39985 | 33996 ft | 423 kts | 264° |
| 2026-03-29 10:21 | 59.16661 | 9.28653 | 33992 ft | 422 kts | 264° |
| 2026-03-29 10:22 | 59.15781 | 9.17357 | 33996 ft | 421 kts | 264° |
| 2026-03-29 10:22 | 59.14895 | 9.06069 | 34000 ft | 421 kts | 264° |
| 2026-03-29 10:23 | 59.14005 | 8.94797 | 33984 ft | 421 kts | 264° |
| 2026-03-29 10:23 | 59.13106 | 8.83553 | 33995 ft | 420 kts | 264° |
| 2026-03-29 10:24 | 59.12191 | 8.72318 | 33992 ft | 420 kts | 264° |
| 2026-03-29 10:24 | 59.11273 | 8.61114 | 33993 ft | 419 kts | 264° |
| 2026-03-29 10:25 | 59.10495 | 8.51725 | 33993 ft | 419 kts | 264° |
| 2026-03-29 10:25 | 59.09561 | 8.40534 | 33997 ft | 419 kts | 264° |
| 2026-03-29 10:26 | 59.08611 | 8.29345 | 33921 ft | 418 kts | 264° |
| 2026-03-29 10:26 | 59.08138 | 8.23839 | 33637 ft | 407 kts | 264° |
| 2026-03-29 10:26 | 59.07674 | 8.18482 | 33376 ft | 396 kts | 264° |
| 2026-03-29 10:26 | 59.07223 | 8.13275 | 33081 ft | 386 kts | 264° |
| 2026-03-29 10:27 | 59.06782 | 8.08161 | 32601 ft | 382 kts | 264° |
| 2026-03-29 10:27 | 59.06344 | 8.03087 | 32108 ft | 378 kts | 264° |
| 2026-03-29 10:27 | 59.05908 | 7.98082 | 31665 ft | 374 kts | 264° |
| 2026-03-29 10:27 | 59.05475 | 7.93134 | 31218 ft | 370 kts | 264° |
| 2026-03-29 10:28 | 59.05046 | 7.88241 | 30771 ft | 366 kts | 264° |
| 2026-03-29 10:28 | 59.04619 | 7.83398 | 30344 ft | 362 kts | 264° |
| 2026-03-29 10:28 | 59.04192 | 7.78597 | 29888 ft | 359 kts | 264° |
| 2026-03-29 10:28 | 59.03766 | 7.73850 | 29386 ft | 355 kts | 264° |
| 2026-03-29 10:29 | 59.03343 | 7.69145 | 28885 ft | 352 kts | 264° |
| 2026-03-29 10:29 | 59.02922 | 7.64479 | 28407 ft | 349 kts | 263° |
| 2026-03-29 10:29 | 59.02504 | 7.59873 | 28018 ft | 344 kts | 263° |
| 2026-03-29 10:29 | 59.02090 | 7.55323 | 27588 ft | 341 kts | 263° |
| 2026-03-29 10:30 | 59.01673 | 7.50753 | 27143 ft | 338 kts | 263° |
| 2026-03-29 10:30 | 59.01270 | 7.46344 | 26677 ft | 336 kts | 263° |
| 2026-03-29 10:30 | 59.00864 | 7.41900 | 26209 ft | 334 kts | 263° |
| 2026-03-29 10:30 | 59.00453 | 7.37430 | 25746 ft | 332 kts | 263° |
| 2026-03-29 10:31 | 59.00047 | 7.33040 | 25282 ft | 330 kts | 263° |
| 2026-03-29 10:31 | 58.99640 | 7.28674 | 24828 ft | 328 kts | 263° |
| 2026-03-29 10:31 | 58.99233 | 7.24340 | 24383 ft | 326 kts | 263° |
| 2026-03-29 10:31 | 58.98829 | 7.20024 | 23940 ft | 324 kts | 263° |
| 2026-03-29 10:32 | 58.98425 | 7.15736 | 23492 ft | 323 kts | 262° |
| 2026-03-29 10:32 | 58.98021 | 7.11467 | 22997 ft | 321 kts | 262° |
| 2026-03-29 10:32 | 58.97617 | 7.07230 | 22513 ft | 319 kts | 262° |
| 2026-03-29 10:32 | 58.97214 | 7.03009 | 22031 ft | 317 kts | 262° |
| 2026-03-29 10:33 | 58.96812 | 6.98814 | 21552 ft | 316 kts | 261° |
| 2026-03-29 10:33 | 58.96460 | 6.94636 | 20894 ft | 314 kts | 268° |
| 2026-03-29 10:33 | 58.96633 | 6.90401 | 19840 ft | 319 kts | 278° |
| 2026-03-29 10:33 | 58.96957 | 6.86132 | 18845 ft | 322 kts | 278° |
| 2026-03-29 10:34 | 58.97292 | 6.81821 | 17800 ft | 324 kts | 278° |
| 2026-03-29 10:34 | 58.97630 | 6.77478 | 16729 ft | 326 kts | 278° |
| 2026-03-29 10:34 | 58.97966 | 6.73127 | 15680 ft | 327 kts | 277° |
| 2026-03-29 10:34 | 58.98301 | 6.68755 | 14657 ft | 328 kts | 277° |
| 2026-03-29 10:35 | 58.98633 | 6.64384 | 13656 ft | 327 kts | 277° |
| 2026-03-29 10:35 | 58.98961 | 6.60024 | 12542 ft | 326 kts | 277° |
| 2026-03-29 10:35 | 58.99285 | 6.55687 | 11474 ft | 324 kts | 276° |
| 2026-03-29 10:35 | 58.99609 | 6.51332 | 10556 ft | 319 kts | 276° |
| 2026-03-29 10:36 | 58.99913 | 6.47242 | 10083 ft | 302 kts | 276° |
| 2026-03-29 10:36 | 59.00206 | 6.43305 | 9862 ft | 283 kts | 275° |
| 2026-03-29 10:36 | 59.00479 | 6.39590 | 9718 ft | 272 kts | 275° |
| 2026-03-29 10:36 | 59.00738 | 6.36020 | 9568 ft | 266 kts | 275° |
| 2026-03-29 10:37 | 59.00994 | 6.32475 | 9433 ft | 265 kts | 275° |
| 2026-03-29 10:37 | 59.01247 | 6.28934 | 9292 ft | 265 kts | 275° |
| 2026-03-29 10:37 | 59.01499 | 6.25394 | 8974 ft | 265 kts | 275° |
| 2026-03-29 10:37 | 59.01750 | 6.21865 | 8560 ft | 263 kts | 275° |
| 2026-03-29 10:38 | 59.01999 | 6.18361 | 8134 ft | 262 kts | 275° |
| 2026-03-29 10:38 | 59.02248 | 6.14863 | 7717 ft | 261 kts | 275° |
| 2026-03-29 10:38 | 59.02496 | 6.11371 | 7294 ft | 261 kts | 275° |
| 2026-03-29 10:38 | 59.02742 | 6.07896 | 6888 ft | 259 kts | 275° |
| 2026-03-29 10:39 | 59.02987 | 6.04424 | 6481 ft | 259 kts | 274° |
| 2026-03-29 10:39 | 59.03228 | 6.00977 | 6098 ft | 256 kts | 274° |
| 2026-03-29 10:39 | 59.03467 | 5.97547 | 5635 ft | 255 kts | 274° |
| 2026-03-29 10:39 | 59.03702 | 5.94146 | 5217 ft | 254 kts | 274° |
| 2026-03-29 10:40 | 59.03936 | 5.90761 | 4806 ft | 252 kts | 274° |
| 2026-03-29 10:40 | 59.04167 | 5.87390 | 4390 ft | 250 kts | 274° |
| 2026-03-29 10:40 | 59.04393 | 5.84108 | 4194 ft | 239 kts | 274° |
| 2026-03-29 10:40 | 59.04611 | 5.80989 | 4058 ft | 227 kts | 274° |
| 2026-03-29 10:41 | 59.04810 | 5.78022 | 3891 ft | 216 kts | 270° |
| 2026-03-29 10:41 | 59.04724 | 5.75171 | 3760 ft | 210 kts | 255° |
| 2026-03-29 10:41 | 59.04266 | 5.72440 | 3234 ft | 218 kts | 247° |
| 2026-03-29 10:41 | 59.03711 | 5.69651 | 2692 ft | 223 kts | 247° |
| 2026-03-29 10:42 | 59.03071 | 5.67033 | 2623 ft | 207 kts | 234° |
| 2026-03-29 10:42 | 59.02120 | 5.65078 | 2517 ft | 195 kts | 217° |
| 2026-03-29 10:42 | 59.00949 | 5.63857 | 2332 ft | 188 kts | 200° |
| 2026-03-29 10:42 | 58.99690 | 5.63424 | 2111 ft | 177 kts | 184° |
| 2026-03-29 10:43 | 58.98505 | 5.63463 | 1906 ft | 164 kts | 183° |
| 2026-03-29 10:43 | 58.97398 | 5.63495 | 1662 ft | 155 kts | 183° |
| 2026-03-29 10:43 | 58.96354 | 5.63525 | 1441 ft | 144 kts | 183° |
| 2026-03-29 10:43 | 58.95404 | 5.63554 | 1260 ft | 132 kts | 183° |
| 2026-03-29 10:44 | 58.94509 | 5.63580 | 1076 ft | 127 kts | 184° |
| 2026-03-29 10:44 | 58.93636 | 5.63595 | 910 ft | 125 kts | 184° |
| 2026-03-29 10:44 | 58.92765 | 5.63619 | 743 ft | 125 kts | 183° |
| 2026-03-29 10:44 | 58.91895 | 5.63649 | 548 ft | 125 kts | 182° |
| 2026-03-29 10:45 | 58.91034 | 5.63685 | 399 ft | 124 kts | 182° |
| 2026-03-29 10:45 | 58.90160 | 5.63709 | 238 ft | 124 kts | 181° |
| 2026-03-29 10:45 | 58.89300 | 5.63740 | 55 ft | 124 kts | 181° |
| 2026-03-29 10:45 | 58.88519 | 5.63758 | 30 ft | 93 kts | 179° |
| 2026-03-29 10:46 | 58.88027 | 5.63774 | 32 ft | 57 kts | 179° |
| 2026-03-29 10:46 | 58.87760 | 5.63781 | 33 ft | 23 kts | 179° |
| 2026-03-29 10:46 | 58.87692 | 5.63699 | 33 ft | 12 kts | 271° |
| 2026-03-29 10:46 | 58.87721 | 5.63505 | 32 ft | 18 kts | 287° |
| 2026-03-29 10:47 | 58.87779 | 5.63299 | 31 ft | 17 kts | 338° |
| 2026-03-29 10:47 | 58.87892 | 5.63327 | 31 ft | 16 kts | 22° |
| 2026-03-29 10:47 | 58.87978 | 5.63360 | 31 ft | 12 kts | 335° |
| 2026-03-29 10:47 | 58.88034 | 5.63231 | 29 ft | 13 kts | 306° |
| 2026-03-29 10:48 | 58.88090 | 5.63097 | 30 ft | 13 kts | 316° |
| 2026-03-29 10:48 | 58.88125 | 5.63030 | 25 ft | 2 kts | 315° |
| 2026-03-29 10:48 | 58.88128 | 5.63024 | 25 ft | 0 kts | 315° |